createdAt,value
2023-01-30T00:02:36.153Z,63.16
2023-01-30T00:07:37.739Z,63.25
2023-01-30T00:12:39.740Z,63.23
2023-01-30T00:17:41.347Z,62.96
2023-01-30T00:22:52.411Z,63.14
2023-01-30T00:28:01.745Z,63.12
2023-01-30T00:33:03.545Z,63.04
2023-01-30T00:38:05.169Z,63.69
2023-01-30T00:43:25.287Z,63.43
2023-01-30T00:48:27.563Z,63.50
2023-01-30T00:53:29.178Z,63.40
2023-01-30T00:58:30.784Z,63.18
2023-01-30T01:03:32.414Z,63.24
2023-01-30T01:08:34.023Z,63.27
2023-01-30T01:13:35.661Z,63.42
2023-01-30T01:18:37.261Z,63.52
2023-01-30T01:23:39.339Z,63.59
2023-01-30T01:28:40.946Z,63.77
2023-01-30T01:33:42.653Z,63.49
2023-01-30T01:38:44.749Z,63.88
2023-01-30T01:44:09.148Z,63.77
2023-01-30T01:49:32.486Z,64.08
2023-01-30T01:54:51.571Z,64.34
2023-01-30T01:59:59.853Z,63.94
2023-01-30T02:05:06.613Z,64.02
2023-01-30T02:10:13.813Z,64.05
2023-01-30T02:15:17.582Z,64.49
2023-01-30T02:20:29.405Z,64.79
2023-01-30T02:25:59.945Z,64.36
2023-01-30T02:31:32.597Z,64.66
2023-01-30T02:37:00.233Z,64.66
2023-01-30T02:42:14.767Z,65.01
2023-01-30T02:47:24.368Z,65.05
2023-01-30T02:52:27.469Z,65.11
2023-01-30T02:57:29.077Z,64.76
2023-01-30T03:03:09.863Z,65.20
2023-01-30T03:08:28.912Z,64.94
2023-01-30T03:13:46.655Z,65.63
2023-01-30T03:18:49.508Z,65.12
2023-01-30T03:23:51.107Z,65.71
2023-01-30T03:28:53.092Z,65.28
2023-01-30T03:33:54.701Z,65.95
2023-01-30T03:38:56.323Z,65.82
2023-01-30T03:43:57.899Z,65.99
2023-01-30T03:48:59.487Z,65.53
2023-01-30T03:54:01.291Z,65.47
2023-01-30T03:59:02.925Z,65.29
2023-01-30T04:04:04.575Z,65.33
2023-01-30T04:09:06.172Z,65.13
2023-01-30T04:14:07.781Z,65.69
2023-01-30T04:19:09.404Z,66.14
2023-01-30T04:24:11.133Z,66.53
2023-01-30T04:29:12.753Z,66.16
2023-01-30T04:34:14.378Z,65.98
2023-01-30T04:39:15.979Z,66.54
2023-01-30T04:44:17.624Z,66.97
2023-01-30T04:49:19.221Z,66.63
2023-01-30T04:54:20.893Z,67.07
2023-01-30T04:59:22.486Z,67.57
2023-01-30T05:04:24.052Z,67.87
2023-01-30T05:09:25.668Z,68.33
2023-01-30T05:14:27.248Z,68.88
2023-01-30T05:19:28.861Z,69.43
2023-01-30T05:24:30.464Z,69.48
2023-01-30T05:29:32.072Z,69.27
2023-01-30T05:34:33.647Z,68.86
2023-01-30T05:39:35.302Z,68.94
2023-01-30T05:44:36.913Z,68.63
2023-01-30T05:49:38.562Z,68.89
2023-01-30T05:54:40.166Z,68.42
2023-01-30T05:59:41.780Z,68.44
2023-01-30T06:04:43.359Z,67.97
2023-01-30T06:09:44.934Z,67.97
2023-01-30T06:14:46.495Z,68.21
2023-01-30T06:19:48.112Z,68.65
2023-01-30T06:24:49.752Z,68.17
2023-01-30T06:29:51.461Z,68.21
2023-01-30T06:34:53.044Z,68.25
2023-01-30T06:39:54.631Z,68.91
2023-01-30T06:44:56.379Z,68.96
2023-01-30T06:49:57.970Z,69.73
2023-01-30T06:54:59.704Z,69.50
2023-01-30T07:00:01.274Z,70.15
2023-01-30T07:05:03.686Z,70.14
2023-01-30T07:10:08.936Z,70.89
2023-01-30T07:15:11.043Z,71.02
2023-01-30T07:20:12.789Z,71.30
2023-01-30T07:25:14.429Z,70.72
2023-01-30T07:30:16.250Z,70.88
2023-01-30T07:35:18.211Z,70.83
2023-01-30T07:40:21.175Z,70.62
2023-01-30T07:45:22.760Z,70.75
2023-01-30T07:50:24.439Z,70.73
2023-01-30T07:55:27.165Z,70.19
2023-01-30T08:00:29.088Z,70.27
2023-01-30T08:05:30.686Z,70.56
2023-01-30T08:10:32.294Z,71.19
2023-01-30T08:15:33.887Z,70.66
2023-01-30T08:20:36.273Z,70.46
2023-01-30T08:25:38.070Z,70.21
2023-01-30T08:30:41.959Z,70.34
2023-01-30T08:35:44.643Z,70.13
2023-01-30T08:40:46.244Z,70.42
2023-01-30T08:45:47.824Z,70.19
2023-01-30T08:50:54.149Z,69.83
2023-01-30T08:55:55.782Z,69.32
2023-01-30T09:00:57.393Z,69.21
2023-01-30T09:05:59.044Z,69.04
2023-01-30T09:11:02.465Z,69.08
2023-01-30T09:16:06.376Z,68.89
2023-01-30T09:21:09.350Z,68.73
2023-01-30T09:26:11.012Z,68.65
2023-01-30T09:31:12.700Z,68.85
2023-01-30T09:36:14.559Z,68.92
2023-01-30T09:41:43.668Z,68.04
2023-01-30T09:47:00.921Z,68.16
2023-01-30T09:52:17.103Z,67.52
2023-01-30T09:57:24.673Z,68.27
2023-01-30T10:02:47.560Z,68.48
2023-01-30T10:07:52.137Z,68.43
2023-01-30T10:13:11.653Z,68.59
2023-01-30T10:18:41.168Z,68.46
2023-01-30T10:24:01.623Z,68.67
2023-01-30T10:29:08.616Z,68.28
2023-01-30T10:34:25.254Z,67.96
2023-01-30T10:39:38.726Z,68.10
2023-01-30T10:44:42.962Z,67.61
2023-01-30T10:49:52.634Z,67.32
2023-01-30T10:55:01.786Z,65.81
2023-01-30T11:00:17.397Z,64.15
2023-01-30T11:05:24.381Z,64.24
2023-01-30T11:10:28.007Z,64.25
2023-01-30T11:15:40.715Z,63.54
2023-01-30T11:20:47.947Z,63.80
2023-01-30T11:26:05.458Z,63.69
2023-01-30T11:31:38.936Z,63.91
2023-01-30T11:36:42.597Z,64.07
2023-01-30T11:42:05.860Z,63.83
2023-01-30T11:47:13.111Z,63.68
2023-01-30T11:52:18.838Z,63.61
2023-01-30T11:57:21.083Z,63.26
2023-01-30T12:02:33.743Z,63.02
2023-01-30T12:07:37.424Z,62.77
2023-01-30T12:12:50.146Z,61.42
2023-01-30T12:18:14.615Z,61.05
2023-01-30T12:23:33.311Z,60.33
2023-01-30T12:28:46.589Z,60.63
2023-01-30T12:33:49.265Z,59.77
2023-01-30T12:39:02.224Z,58.94
2023-01-30T12:44:37.759Z,57.87
2023-01-30T12:50:06.706Z,57.77
2023-01-30T12:55:08.563Z,57.20
2023-01-30T13:00:45.365Z,54.79
2023-01-30T13:05:56.205Z,55.24
2023-01-30T13:11:12.656Z,55.26
2023-01-30T13:16:36.698Z,54.92
2023-01-30T13:21:53.822Z,54.15
2023-01-30T13:27:00.230Z,54.56
2023-01-30T13:32:05.780Z,55.02
2023-01-30T13:37:12.496Z,54.47
2023-01-30T13:42:49.901Z,54.28
2023-01-30T13:48:19.641Z,53.97
2023-01-30T13:53:39.832Z,53.42
2023-01-30T13:58:55.247Z,52.46
2023-01-30T14:04:24.978Z,52.22
2023-01-30T14:09:29.895Z,51.46
2023-01-30T14:14:36.737Z,51.90
2023-01-30T14:20:07.881Z,51.15
2023-01-30T14:25:30.017Z,51.42
2023-01-30T14:30:49.777Z,52.31
2023-01-30T14:36:03.265Z,51.42
2023-01-30T14:41:04.843Z,51.86
2023-01-30T14:46:18.616Z,51.36
2023-01-30T14:51:24.061Z,52.30
2023-01-30T14:56:40.674Z,52.11
2023-01-30T15:02:24.006Z,51.92
2023-01-30T15:07:49.628Z,52.98
2023-01-30T15:13:20.344Z,53.55
2023-01-30T15:18:29.754Z,53.41
2023-01-30T15:23:59.053Z,53.38
2023-01-30T15:29:42.172Z,53.94
2023-01-30T15:34:58.651Z,53.71
2023-01-30T15:40:18.859Z,54.47
2023-01-30T15:45:48.470Z,54.96
2023-01-30T15:50:53.900Z,54.88
2023-01-30T15:55:55.596Z,55.23
2023-01-30T16:01:00.858Z,55.30
2023-01-30T16:06:03.857Z,55.27
2023-01-30T16:11:05.501Z,55.70
2023-01-30T16:16:15.312Z,55.36
2023-01-30T16:21:34.231Z,55.53
2023-01-30T16:26:36.929Z,55.83
2023-01-30T16:31:39.989Z,55.93
2023-01-30T16:36:43.739Z,55.96
2023-01-30T16:41:54.652Z,55.99
2023-01-30T16:47:00.238Z,56.01
2023-01-30T16:52:34.675Z,55.70
2023-01-30T16:57:42.686Z,55.86
2023-01-30T17:02:55.019Z,55.99
2023-01-30T17:07:57.831Z,56.57
2023-01-30T17:12:59.592Z,56.92
2023-01-30T17:18:01.903Z,57.06
2023-01-30T17:23:08.433Z,57.17
2023-01-30T17:28:18.543Z,56.84
2023-01-30T17:33:20.217Z,56.65
2023-01-30T17:38:21.861Z,56.53
2023-01-30T17:43:23.554Z,56.28
2023-01-30T17:48:25.187Z,56.34
2023-01-30T17:53:26.808Z,56.60
2023-01-30T17:58:28.471Z,56.14
2023-01-30T18:03:30.140Z,56.02
2023-01-30T18:08:31.730Z,56.08
2023-01-30T18:13:35.002Z,56.09
2023-01-30T18:18:37.196Z,55.99
2023-01-30T18:23:38.832Z,55.92
2023-01-30T18:28:40.523Z,55.75
2023-01-30T18:33:44.782Z,55.77
2023-01-30T18:38:46.851Z,56.96
2023-01-30T18:43:53.935Z,58.00
2023-01-30T18:48:56.131Z,58.65
2023-01-30T18:53:58.242Z,58.65
2023-01-30T18:59:05.203Z,58.80
2023-01-30T19:04:09.188Z,58.74
2023-01-30T19:09:16.023Z,58.38
2023-01-30T19:14:17.603Z,58.56
2023-01-30T19:19:19.230Z,58.15
2023-01-30T19:24:21.302Z,58.39
2023-01-30T19:29:23.001Z,58.23
2023-01-30T19:34:24.577Z,58.15
2023-01-30T19:39:26.196Z,58.01
2023-01-30T19:44:27.781Z,57.99
2023-01-30T19:49:30.612Z,58.18
2023-01-30T19:54:32.784Z,58.43
2023-01-30T19:59:38.689Z,58.68
2023-01-30T20:04:40.796Z,59.01
2023-01-30T20:09:42.482Z,59.20
2023-01-30T20:14:44.103Z,58.87
2023-01-30T20:19:45.742Z,58.95
2023-01-30T20:24:48.776Z,58.89
2023-01-30T20:29:50.370Z,58.92
2023-01-30T20:34:52.010Z,58.73
2023-01-30T20:39:53.691Z,58.92
2023-01-30T20:44:55.323Z,59.00
2023-01-30T20:49:56.946Z,59.37
2023-01-30T20:54:58.703Z,59.90
2023-01-30T21:00:02.212Z,60.56
2023-01-30T21:05:04.343Z,60.69
2023-01-30T21:10:06.140Z,60.74
2023-01-30T21:15:08.430Z,61.06
2023-01-30T21:20:10.584Z,61.60
2023-01-30T21:25:12.943Z,61.67
2023-01-30T21:30:14.838Z,62.10
2023-01-30T21:35:16.508Z,62.51
2023-01-30T21:40:37.000Z,62.79
2023-01-30T21:45:39.085Z,62.96
2023-01-30T21:50:41.088Z,63.24
2023-01-30T21:55:42.872Z,63.77
2023-01-30T22:00:45.093Z,63.59
2023-01-30T22:05:46.831Z,63.87
2023-01-30T22:10:48.820Z,63.88
2023-01-30T22:15:50.888Z,63.95
2023-01-30T22:20:52.793Z,64.14
2023-01-30T22:25:54.693Z,64.15
2023-01-30T22:31:12.826Z,64.68
2023-01-30T22:36:15.132Z,64.28
2023-01-30T22:41:19.548Z,64.04
2023-01-30T22:46:23.757Z,64.91
2023-01-30T22:51:28.162Z,65.36
2023-01-30T22:56:34.477Z,65.32
2023-01-30T23:01:44.922Z,65.37
2023-01-30T23:06:47.517Z,65.54
2023-01-30T23:12:11.273Z,65.38
2023-01-30T23:17:31.469Z,65.49
2023-01-30T23:22:33.089Z,66.44
2023-01-30T23:27:35.448Z,65.92
2023-01-30T23:32:38.003Z,65.83
2023-01-30T23:37:58.322Z,66.16
2023-01-30T23:42:59.923Z,66.16
2023-01-30T23:48:01.540Z,66.52
2023-01-30T23:53:04.537Z,66.40
2023-01-30T23:58:06.158Z,67.58
